sensor_id;sensor_type;location;lat;lon;timestamp;pressure;altitude;pressure_sealevel;temperature;humidity
9235;BME280;4652;42.716;23.218;2023-04-29T00:03:35;94855.63;;;4.04;100.00
9235;BME280;4652;42.716;23.218;2023-04-29T00:10:18;94863.38;;;4.05;100.00
9235;BME280;4652;42.716;23.218;2023-04-29T00:17:00;94867.69;;;4.11;100.00
9235;BME280;4652;42.716;23.218;2023-04-29T00:23:43;94855.25;;;3.95;100.00
9235;BME280;4652;42.716;23.218;2023-04-29T00:30:26;94872.94;;;3.85;100.00
9235;BME280;4652;42.716;23.218;2023-04-29T00:37:09;94873.63;;;3.75;100.00
9235;BME280;4652;42.716;23.218;2023-04-29T00:43:51;94874.31;;;3.49;100.00
9235;BME280;4652;42.716;23.218;2023-04-29T00:50:35;94844.56;;;3.19;100.00
9235;BME280;4652;42.716;23.218;2023-04-29T00:57:18;94854.81;;;3.10;100.00
9235;BME280;4652;42.716;23.218;2023-04-29T01:08:15;94838.28;;;2.91;100.00
9235;BME280;4652;42.716;23.218;2023-04-29T01:15:07;94847.31;;;2.90;100.00
9235;BME280;4652;42.716;23.218;2023-04-29T01:21:50;94837.63;;;3.01;100.00
9235;BME280;4652;42.716;23.218;2023-04-29T01:28:42;94831.94;;;2.92;100.00
9235;BME280;4652;42.716;23.218;2023-04-29T01:35:40;94831.75;;;2.99;100.00
9235;BME280;4652;42.716;23.218;2023-04-29T01:42:32;94802.97;;;2.63;100.00
9235;BME280;4652;42.716;23.218;2023-04-29T01:49:19;94834.38;;;2.66;100.00
9235;BME280;4652;42.716;23.218;2023-04-29T01:56:01;94830.66;;;2.50;100.00
9235;BME280;4652;42.716;23.218;2023-04-29T02:02:43;94834.13;;;2.51;100.00
9235;BME280;4652;42.716;23.218;2023-04-29T02:09:27;94852.47;;;2.52;100.00
9235;BME280;4652;42.716;23.218;2023-04-29T02:16:09;94844.34;;;2.42;100.00
9235;BME280;4652;42.716;23.218;2023-04-29T02:22:51;94835.75;;;2.23;100.00
9235;BME280;4652;42.716;23.218;2023-04-29T02:29:35;94840.38;;;2.16;100.00
9235;BME280;4652;42.716;23.218;2023-04-29T02:36:17;94838.16;;;2.25;100.00
9235;BME280;4652;42.716;23.218;2023-04-29T02:42:59;94828.16;;;2.15;100.00
9235;BME280;4652;42.716;23.218;2023-04-29T02:49:43;94830.66;;;2.22;100.00
9235;BME280;4652;42.716;23.218;2023-04-29T02:56:25;94853.28;;;2.24;100.00
9235;BME280;4652;42.716;23.218;2023-04-29T03:03:07;94833.03;;;2.07;100.00
9235;BME280;4652;42.716;23.218;2023-04-29T03:09:50;94844.56;;;2.12;100.00
9235;BME280;4652;42.716;23.218;2023-04-29T03:16:32;94839.19;;;1.96;100.00
9235;BME280;4652;42.716;23.218;2023-04-29T03:23:14;94863.78;;;1.91;100.00
9235;BME280;4652;42.716;23.218;2023-04-29T03:29:57;94883.97;;;2.04;100.00
9235;BME280;4652;42.716;23.218;2023-04-29T03:36:39;94884.66;;;1.99;100.00
9235;BME280;4652;42.716;23.218;2023-04-29T03:43:21;94876.69;;;1.99;100.00
9235;BME280;4652;42.716;23.218;2023-04-29T03:50:06;94865.91;;;2.17;100.00
9235;BME280;4652;42.716;23.218;2023-04-29T03:56:48;94858.34;;;2.54;100.00
9235;BME280;4652;42.716;23.218;2023-04-29T04:03:30;94876.34;;;2.92;100.00
9235;BME280;4652;42.716;23.218;2023-04-29T04:10:14;94902.78;;;3.15;100.00
9235;BME280;4652;42.716;23.218;2023-04-29T04:16:56;94891.50;;;3.58;100.00
9235;BME280;4652;42.716;23.218;2023-04-29T04:23:38;94889.59;;;3.92;100.00
9235;BME280;4652;42.716;23.218;2023-04-29T04:30:22;94875.94;;;4.32;100.00
9235;BME280;4652;42.716;23.218;2023-04-29T04:37:04;94881.66;;;4.89;100.00
9235;BME280;4652;42.716;23.218;2023-04-29T04:43:46;94876.50;;;5.41;100.00
9235;BME280;4652;42.716;23.218;2023-04-29T04:50:30;94822.09;;;5.52;100.00
9235;BME280;4652;42.716;23.218;2023-04-29T04:57:12;94849.25;;;6.32;100.00
9235;BME280;4652;42.716;23.218;2023-04-29T05:03:54;94838.41;;;6.69;100.00
9235;BME280;4652;42.716;23.218;2023-04-29T05:10:38;94837.69;;;7.49;100.00
9235;BME280;4652;42.716;23.218;2023-04-29T05:17:20;94846.47;;;7.85;100.00
9235;BME280;4652;42.716;23.218;2023-04-29T05:24:02;94828.16;;;8.12;100.00
9235;BME280;4652;42.716;23.218;2023-04-29T05:30:45;94836.34;;;8.61;98.97
9235;BME280;4652;42.716;23.218;2023-04-29T05:37:27;94834.03;;;8.89;90.57
9235;BME280;4652;42.716;23.218;2023-04-29T05:44:11;94840.34;;;9.08;80.77
9235;BME280;4652;42.716;23.218;2023-04-29T05:50:54;94832.50;;;9.50;76.85
9235;BME280;4652;42.716;23.218;2023-04-29T05:57:36;94829.88;;;10.92;70.72
9235;BME280;4652;42.716;23.218;2023-04-29T06:04:18;94821.75;;;13.75;57.46
9235;BME280;4652;42.716;23.218;2023-04-29T06:11:02;94810.50;;;14.91;53.43
9235;BME280;4652;42.716;23.218;2023-04-29T06:17:45;94808.78;;;15.80;50.71
9235;BME280;4652;42.716;23.218;2023-04-29T06:24:28;94808.50;;;17.87;47.83
9235;BME280;4652;42.716;23.218;2023-04-29T06:31:11;94801.22;;;21.15;41.88
9235;BME280;4652;42.716;23.218;2023-04-29T06:37:53;94798.16;;;19.98;43.02
9235;BME280;4652;42.716;23.218;2023-04-29T06:44:35;94818.63;;;17.86;47.09
9235;BME280;4652;42.716;23.218;2023-04-29T06:51:19;94808.00;;;24.02;37.96
9235;BME280;4652;42.716;23.218;2023-04-29T06:58:02;94788.75;;;26.81;35.06
9235;BME280;4652;42.716;23.218;2023-04-29T07:08:06;94792.13;;;28.23;32.64
9235;BME280;4652;42.716;23.218;2023-04-29T07:14:48;94782.66;;;28.27;32.37
9235;BME280;4652;42.716;23.218;2023-04-29T07:21:30;94780.50;;;28.56;31.72
9235;BME280;4652;42.716;23.218;2023-04-29T07:28:13;94789.25;;;24.44;35.07
9235;BME280;4652;42.716;23.218;2023-04-29T07:34:56;94754.72;;;21.91;38.25
9235;BME280;4652;42.716;23.218;2023-04-29T07:41:37;94789.03;;;19.78;41.77
9235;BME280;4652;42.716;23.218;2023-04-29T07:48:21;94782.56;;;19.19;42.24
9235;BME280;4652;42.716;23.218;2023-04-29T07:55:03;94782.13;;;18.93;44.05
9235;BME280;4652;42.716;23.218;2023-04-29T08:01:45;94769.16;;;17.96;43.78
9235;BME280;4652;42.716;23.218;2023-04-29T08:08:29;94766.44;;;17.96;45.45
9235;BME280;4652;42.716;23.218;2023-04-29T08:15:10;94757.38;;;17.51;45.12
9235;BME280;4652;42.716;23.218;2023-04-29T08:21:52;94757.63;;;16.75;47.00
9235;BME280;4652;42.716;23.218;2023-04-29T08:28:35;94753.78;;;16.76;46.90
9235;BME280;4652;42.716;23.218;2023-04-29T08:35:18;94760.88;;;16.31;48.78
9235;BME280;4652;42.716;23.218;2023-04-29T08:42:06;94759.59;;;16.28;48.48
9235;BME280;4652;42.716;23.218;2023-04-29T08:48:51;94757.53;;;17.13;48.02
9235;BME280;4652;42.716;23.218;2023-04-29T08:55:35;94750.22;;;16.55;48.15
9235;BME280;4652;42.716;23.218;2023-04-29T09:02:17;94743.38;;;17.94;46.64
9235;BME280;4652;42.716;23.218;2023-04-29T09:09:03;94737.31;;;18.45;45.69
9235;BME280;4652;42.716;23.218;2023-04-29T09:22:46;94725.97;;;18.80;44.90
9235;BME280;4652;42.716;23.218;2023-04-29T09:29:30;94720.97;;;18.94;46.75
9235;BME280;4652;42.716;23.218;2023-04-29T09:36:15;94711.03;;;19.01;43.13
9235;BME280;4652;42.716;23.218;2023-04-29T09:43:16;94702.19;;;19.44;43.13
9235;BME280;4652;42.716;23.218;2023-04-29T09:50:11;94699.34;;;19.01;44.39
9235;BME280;4652;42.716;23.218;2023-04-29T09:56:57;94685.63;;;18.73;44.31
9235;BME280;4652;42.716;23.218;2023-04-29T10:03:40;94664.47;;;18.70;46.24
9235;BME280;4652;42.716;23.218;2023-04-29T10:10:24;94665.63;;;18.45;44.21
9235;BME280;4652;42.716;23.218;2023-04-29T10:17:11;94667.69;;;18.36;44.37
9235;BME280;4652;42.716;23.218;2023-04-29T10:23:58;94668.72;;;18.55;43.68
9235;BME280;4652;42.716;23.218;2023-04-29T10:30:43;94651.28;;;18.84;41.73
9235;BME280;4652;42.716;23.218;2023-04-29T10:37:25;94656.09;;;19.43;39.76
9235;BME280;4652;42.716;23.218;2023-04-29T10:44:07;94650.41;;;19.08;39.06
9235;BME280;4652;42.716;23.218;2023-04-29T10:51:03;94638.97;;;19.89;36.76
9235;BME280;4652;42.716;23.218;2023-04-29T10:57:46;94640.81;;;19.69;33.36
9235;BME280;4652;42.716;23.218;2023-04-29T11:04:30;94632.34;;;19.03;37.57
9235;BME280;4652;42.716;23.218;2023-04-29T11:11:14;94640.47;;;19.27;36.96
9235;BME280;4652;42.716;23.218;2023-04-29T11:17:57;94621.22;;;18.44;34.83
9235;BME280;4652;42.716;23.218;2023-04-29T11:24:51;94627.69;;;17.91;36.58
9235;BME280;4652;42.716;23.218;2023-04-29T11:31:35;94633.59;;;17.93;36.87
9235;BME280;4652;42.716;23.218;2023-04-29T11:38:23;94618.63;;;18.11;38.17
9235;BME280;4652;42.716;23.218;2023-04-29T11:45:06;94622.25;;;18.03;40.19
9235;BME280;4652;42.716;23.218;2023-04-29T11:51:50;94627.34;;;17.93;37.48
9235;BME280;4652;42.716;23.218;2023-04-29T11:58:32;94608.84;;;17.98;37.29
9235;BME280;4652;42.716;23.218;2023-04-29T12:05:14;94562.53;;;17.62;37.68
9235;BME280;4652;42.716;23.218;2023-04-29T12:12:00;94606.44;;;18.45;40.28
9235;BME280;4652;42.716;23.218;2023-04-29T12:18:42;94611.44;;;18.31;37.48
9235;BME280;4652;42.716;23.218;2023-04-29T12:25:25;94601.38;;;18.19;37.94
9235;BME280;4652;42.716;23.218;2023-04-29T12:32:15;94592.63;;;18.14;38.29
9235;BME280;4652;42.716;23.218;2023-04-29T12:38:58;94571.38;;;17.95;38.18
9235;BME280;4652;42.716;23.218;2023-04-29T12:45:40;94580.69;;;18.18;40.60
9235;BME280;4652;42.716;23.218;2023-04-29T12:52:24;94585.84;;;18.72;39.99
9235;BME280;4652;42.716;23.218;2023-04-29T12:59:06;94580.94;;;19.05;41.13
9235;BME280;4652;42.716;23.218;2023-04-29T13:08:08;94580.81;;;19.29;40.28
9235;BME280;4652;42.716;23.218;2023-04-29T13:14:51;94564.75;;;19.40;41.74
9235;BME280;4652;42.716;23.218;2023-04-29T13:21:34;94562.72;;;19.53;41.81
9235;BME280;4652;42.716;23.218;2023-04-29T13:28:18;94561.75;;;19.61;41.60
9235;BME280;4652;42.716;23.218;2023-04-29T13:35:01;94555.66;;;19.83;41.64
9235;BME280;4652;42.716;23.218;2023-04-29T13:41:44;94557.25;;;19.84;42.41
9235;BME280;4652;42.716;23.218;2023-04-29T13:48:28;94552.72;;;19.29;42.83
9235;BME280;4652;42.716;23.218;2023-04-29T13:55:10;94543.00;;;19.16;45.96
9235;BME280;4652;42.716;23.218;2023-04-29T14:01:52;94532.09;;;19.16;43.45
9235;BME280;4652;42.716;23.218;2023-04-29T14:08:35;94523.66;;;18.77;45.11
9235;BME280;4652;42.716;23.218;2023-04-29T14:15:17;94531.13;;;18.53;46.52
9235;BME280;4652;42.716;23.218;2023-04-29T14:21:59;94520.66;;;18.43;45.36
9235;BME280;4652;42.716;23.218;2023-04-29T14:28:42;94521.25;;;18.36;45.27
9235;BME280;4652;42.716;23.218;2023-04-29T14:35:24;94522.28;;;18.32;45.79
9235;BME280;4652;42.716;23.218;2023-04-29T14:42:06;94500.28;;;18.25;46.61
9235;BME280;4652;42.716;23.218;2023-04-29T14:48:51;94511.44;;;18.07;46.88
9235;BME280;4652;42.716;23.218;2023-04-29T14:55:33;94509.06;;;17.82;49.13
9235;BME280;4652;42.716;23.218;2023-04-29T15:02:15;94501.22;;;17.44;49.58
9235;BME280;4652;42.716;23.218;2023-04-29T15:08:59;94486.59;;;17.24;48.50
9235;BME280;4652;42.716;23.218;2023-04-29T15:15:41;94489.09;;;17.41;48.62
9235;BME280;4652;42.716;23.218;2023-04-29T15:22:23;94486.38;;;17.41;48.83
9235;BME280;4652;42.716;23.218;2023-04-29T15:29:06;94483.31;;;17.31;49.42
9235;BME280;4652;42.716;23.218;2023-04-29T15:35:48;94483.16;;;17.15;49.29
9235;BME280;4652;42.716;23.218;2023-04-29T15:42:30;94464.78;;;17.00;49.54
9235;BME280;4652;42.716;23.218;2023-04-29T15:49:14;94481.56;;;17.02;50.05
9235;BME280;4652;42.716;23.218;2023-04-29T15:55:56;94477.00;;;16.94;52.33
9235;BME280;4652;42.716;23.218;2023-04-29T16:02:37;94477.31;;;16.80;54.77
9235;BME280;4652;42.716;23.218;2023-04-29T16:09:21;94479.59;;;16.78;56.06
9235;BME280;4652;42.716;23.218;2023-04-29T16:16:04;94482.72;;;16.68;58.71
9235;BME280;4652;42.716;23.218;2023-04-29T16:22:46;94492.59;;;16.52;57.83
9235;BME280;4652;42.716;23.218;2023-04-29T16:29:29;94494.41;;;16.48;59.51
9235;BME280;4652;42.716;23.218;2023-04-29T16:36:11;94484.69;;;16.26;64.54
9235;BME280;4652;42.716;23.218;2023-04-29T16:42:53;94490.25;;;16.09;65.94
9235;BME280;4652;42.716;23.218;2023-04-29T16:49:38;94498.56;;;15.63;67.07
9235;BME280;4652;42.716;23.218;2023-04-29T16:56:20;94527.28;;;15.26;63.26
9235;BME280;4652;42.716;23.218;2023-04-29T17:03:03;94531.16;;;15.08;60.25
9235;BME280;4652;42.716;23.218;2023-04-29T17:09:47;94495.03;;;14.87;59.18
9235;BME280;4652;42.716;23.218;2023-04-29T17:16:29;94498.72;;;14.74;60.26
9235;BME280;4652;42.716;23.218;2023-04-29T17:23:12;94522.28;;;14.90;63.01
9235;BME280;4652;42.716;23.218;2023-04-29T17:29:55;94524.75;;;14.66;63.10
9235;BME280;4652;42.716;23.218;2023-04-29T17:36:37;94510.38;;;14.31;66.01
9235;BME280;4652;42.716;23.218;2023-04-29T17:43:19;94537.22;;;14.33;91.41
9235;BME280;4652;42.716;23.218;2023-04-29T17:50:02;94534.75;;;13.80;100.00
9235;BME280;4652;42.716;23.218;2023-04-29T17:56:44;94540.50;;;13.30;100.00
9235;BME280;4652;42.716;23.218;2023-04-29T18:03:26;94543.97;;;13.22;100.00
9235;BME280;4652;42.716;23.218;2023-04-29T18:10:11;94543.97;;;13.22;100.00
9235;BME280;4652;42.716;23.218;2023-04-29T18:16:53;94543.63;;;12.93;100.00
9235;BME280;4652;42.716;23.218;2023-04-29T18:23:35;94546.66;;;12.91;100.00
9235;BME280;4652;42.716;23.218;2023-04-29T18:30:20;94544.13;;;12.95;100.00
9235;BME280;4652;42.716;23.218;2023-04-29T18:37:02;94546.97;;;12.98;100.00
9235;BME280;4652;42.716;23.218;2023-04-29T18:43:43;94537.50;;;12.79;100.00
9235;BME280;4652;42.716;23.218;2023-04-29T18:50:27;94560.06;;;13.05;100.00
9235;BME280;4652;42.716;23.218;2023-04-29T18:57:08;94563.53;;;12.97;100.00
9235;BME280;4652;42.716;23.218;2023-04-29T19:51:56;94564.53;;;13.40;100.00
9235;BME280;4652;42.716;23.218;2023-04-29T19:58:38;94558.09;;;13.19;100.00
9235;BME280;4652;42.716;23.218;2023-04-29T20:05:20;94563.03;;;12.95;100.00
9235;BME280;4652;42.716;23.218;2023-04-29T20:12:04;94544.59;;;12.97;100.00
9235;BME280;4652;42.716;23.218;2023-04-29T20:18:46;94574.31;;;13.19;100.00
9235;BME280;4652;42.716;23.218;2023-04-29T20:25:28;94564.75;;;13.13;100.00
9235;BME280;4652;42.716;23.218;2023-04-29T20:32:12;94567.38;;;13.05;100.00
9235;BME280;4652;42.716;23.218;2023-04-29T20:38:54;94556.47;;;12.87;100.00
9235;BME280;4652;42.716;23.218;2023-04-29T20:45:36;94552.47;;;12.85;100.00
9235;BME280;4652;42.716;23.218;2023-04-29T20:52:20;94535.81;;;12.61;100.00
9235;BME280;4652;42.716;23.218;2023-04-29T20:59:03;94562.13;;;12.77;100.00
9235;BME280;4652;42.716;23.218;2023-04-29T21:05:45;94551.75;;;12.71;100.00
9235;BME280;4652;42.716;23.218;2023-04-29T21:12:28;94547.41;;;12.61;100.00
9235;BME280;4652;42.716;23.218;2023-04-29T21:19:10;94532.13;;;12.57;100.00
9235;BME280;4652;42.716;23.218;2023-04-29T21:25:51;94546.28;;;12.62;100.00
9235;BME280;4652;42.716;23.218;2023-04-29T21:32:35;94549.69;;;12.46;100.00
9235;BME280;4652;42.716;23.218;2023-04-29T21:39:17;94536.00;;;12.20;100.00
9235;BME280;4652;42.716;23.218;2023-04-29T21:45:59;94555.78;;;12.15;100.00
9235;BME280;4652;42.716;23.218;2023-04-29T21:52:43;94562.69;;;11.86;100.00
9235;BME280;4652;42.716;23.218;2023-04-29T21:59:24;94558.31;;;11.62;100.00
9235;BME280;4652;42.716;23.218;2023-04-29T22:06:06;94560.91;;;11.27;100.00
9235;BME280;4652;42.716;23.218;2023-04-29T22:12:50;94560.91;;;11.27;100.00
9235;BME280;4652;42.716;23.218;2023-04-29T22:19:32;94557.81;;;11.19;100.00
9235;BME280;4652;42.716;23.218;2023-04-29T22:26:14;94560.09;;;11.12;100.00
9235;BME280;4652;42.716;23.218;2023-04-29T22:32:57;94542.88;;;10.68;100.00
9235;BME280;4652;42.716;23.218;2023-04-29T22:39:39;94549.41;;;10.48;100.00
9235;BME280;4652;42.716;23.218;2023-04-29T22:46:21;94541.06;;;10.12;100.00
9235;BME280;4652;42.716;23.218;2023-04-29T22:53:04;94532.16;;;9.79;100.00
9235;BME280;4652;42.716;23.218;2023-04-29T22:59:46;94542.19;;;9.55;100.00
9235;BME280;4652;42.716;23.218;2023-04-29T23:06:29;94526.38;;;9.30;100.00
9235;BME280;4652;42.716;23.218;2023-04-29T23:13:13;94526.19;;;9.03;100.00
9235;BME280;4652;42.716;23.218;2023-04-29T23:19:55;94522.66;;;8.78;100.00
9235;BME280;4652;42.716;23.218;2023-04-29T23:26:37;94513.53;;;8.56;100.00
9235;BME280;4652;42.716;23.218;2023-04-29T23:33:20;94520.69;;;8.37;100.00
9235;BME280;4652;42.716;23.218;2023-04-29T23:40:03;94511.88;;;8.26;100.00
9235;BME280;4652;42.716;23.218;2023-04-29T23:46:46;94509.94;;;8.03;100.00
9235;BME280;4652;42.716;23.218;2023-04-29T23:53:30;94505.25;;;7.85;100.00
